Time;durP1;ratioP1;P1;durP2;ratioP2;P2;SDS_P1;SDS_P2;PMS_P1;PMS_P2;Temp;Humidity;BMP_temperature;BMP_pressure;BME280_temperature;BME280_humidity;BME280_pressure;Samples;Min_cycle;Max_cycle;Signal;HPM_P1;HPM_P2
2023/08/02 00:01:08;;;;;;;6.70;1.20;;;;;;;15.32;96.80;99451.41;106213;1250;71159;-68
2023/08/02 00:03:34;;;;;;;4.70;1.50;;;;;;;15.30;96.57;99456.95;106386;1255;72445;-69
2023/08/02 00:06:01;;;;;;;3.70;1.30;;;;;;;15.29;96.52;99458.26;106313;1250;61338;-69
2023/08/02 00:08:29;;;;;;;3.30;1.10;;;;;;;15.28;96.34;99458.77;106127;1250;61126;-67
2023/08/02 00:10:56;;;;;;;4.90;1.30;;;;;;;15.26;95.99;99454.30;106217;1254;73473;-68
2023/08/02 00:13:23;;;;;;;7.00;1.70;;;;;;;15.25;96.11;99453.14;106268;1250;71183;-70
2023/08/02 00:15:53;;;;;;;4.30;1.40;;;;;;;15.25;96.12;99451.88;106259;1250;70531;-69
2023/08/02 00:18:20;;;;;;;3.60;1.30;;;;;;;15.25;96.26;99450.76;106144;1255;61218;-69
2023/08/02 00:20:48;;;;;;;5.20;1.50;;;;;;;15.26;96.04;99452.64;106250;1250;61293;-69
2023/08/02 00:23:15;;;;;;;4.70;1.60;;;;;;;15.25;95.94;99449.57;106200;1251;73326;-70
2023/08/02 00:25:42;;;;;;;4.20;1.30;;;;;;;15.25;95.94;99449.95;106374;1254;71070;-69
2023/08/02 00:28:09;;;;;;;5.50;1.40;;;;;;;15.25;96.19;99448.55;106230;1250;71479;-68
2023/08/02 00:30:44;;;;;;;5.40;1.70;;;;;;;15.24;96.22;99446.84;106211;1252;61898;-69
2023/08/02 00:33:11;;;;;;;3.60;1.30;;;;;;;15.24;96.36;99446.52;106221;1250;61228;-69
2023/08/02 00:35:46;;;;;;;6.60;1.60;;;;;;;15.24;96.43;99445.77;106313;1250;74869;-69
2023/08/02 00:38:13;;;;;;;9.60;1.90;;;;;;;15.25;96.37;99446.90;106291;1252;71317;-68
2023/08/02 00:40:41;;;;;;;4.90;1.50;;;;;;;15.25;96.44;99446.48;106197;1250;70274;-68
2023/08/02 00:43:08;;;;;;;5.60;1.60;;;;;;;15.26;96.67;99450.14;106177;1250;62065;-69
2023/08/02 00:45:36;;;;;;;4.10;1.60;;;;;;;15.27;96.82;99448.34;106308;1250;61350;-69
2023/08/02 00:48:04;;;;;;;4.00;1.40;;;;;;;15.28;96.72;99453.23;106211;1251;73108;-67
2023/08/02 00:50:33;;;;;;;4.40;1.60;;;;;;;15.27;96.79;99447.64;106196;1250;71537;-68
2023/08/02 00:53:00;;;;;;;5.50;1.90;;;;;;;15.27;96.84;99447.31;106220;1250;71782;-68
2023/08/02 00:55:27;;;;;;;5.10;1.70;;;;;;;15.26;96.80;99438.80;106387;1251;62407;-69
2023/08/02 00:57:54;;;;;;;5.00;1.40;;;;;;;15.24;96.68;99437.59;106268;1250;61728;-69
2023/08/02 01:00:21;;;;;;;4.90;1.70;;;;;;;15.24;96.76;99440.48;106241;1250;73324;-69
2023/08/02 01:02:48;;;;;;;6.10;1.90;;;;;;;15.24;96.70;99440.56;106197;1254;69882;-69
2023/08/02 01:05:15;;;;;;;5.20;1.90;;;;;;;15.21;96.30;99438.98;106339;1254;72471;-70
2023/08/02 01:07:49;;;;;;;6.20;1.90;;;;;;;15.18;96.48;99433.56;106248;1250;61460;-70
2023/08/02 01:10:25;;;;;;;6.10;1.80;;;;;;;15.15;96.45;99431.38;106204;1250;61305;-69
2023/08/02 01:12:55;;;;;;;4.50;2.10;;;;;;;15.14;96.46;99432.52;106181;1256;73945;-69
2023/08/02 01:15:22;;;;;;;5.70;1.80;;;;;;;15.12;96.38;99432.86;106227;1250;71187;-68
2023/08/02 01:17:51;;;;;;;6.30;2.10;;;;;;;15.10;96.54;99430.14;106204;1250;71497;-68
2023/08/02 01:20:18;;;;;;;5.90;2.00;;;;;;;15.09;96.51;99428.31;106247;1250;62160;-69
2023/08/02 01:22:45;;;;;;;5.30;1.80;;;;;;;15.07;96.52;99423.09;106194;1256;62298;-68
2023/08/02 01:25:12;;;;;;;6.00;2.20;;;;;;;15.06;96.67;99419.05;106418;1250;75562;-69
2023/08/02 01:27:39;;;;;;;6.20;1.70;;;;;;;15.03;96.74;99417.55;106182;1250;71244;-69
2023/08/02 01:30:11;;;;;;;9.20;2.90;;;;;;;15.03;96.85;99412.63;106260;1250;71524;-68
2023/08/02 01:32:37;;;;;;;4.50;1.90;;;;;;;15.01;96.94;99409.50;106152;1250;63470;-68
2023/08/02 01:35:05;;;;;;;5.50;1.90;;;;;;;14.99;97.06;99407.22;106404;1254;61135;-69
2023/08/02 01:37:35;;;;;;;7.10;2.40;;;;;;;14.99;97.13;99403.95;106410;1249;74675;-68
2023/08/02 01:40:04;;;;;;;6.10;1.90;;;;;;;14.99;97.01;99405.61;106261;1252;69721;-70
2023/08/02 01:42:32;;;;;;;6.90;2.00;;;;;;;15.00;97.09;99398.91;106252;1250;72790;-69
2023/08/02 01:44:59;;;;;;;6.40;2.00;;;;;;;15.01;97.01;99395.19;106438;1250;62067;-70
2023/08/02 01:47:25;;;;;;;6.80;2.00;;;;;;;15.01;97.03;99391.77;106367;1250;61174;-69
2023/08/02 01:49:52;;;;;;;5.60;2.10;;;;;;;15.01;96.89;99389.10;106187;1250;73205;-70
2023/08/02 01:52:19;;;;;;;5.10;1.90;;;;;;;15.02;96.87;99384.58;106247;1253;70604;-69
2023/08/02 01:54:46;;;;;;;7.20;2.10;;;;;;;15.02;96.86;99382.81;106344;1250;71482;-70
2023/08/02 01:57:13;;;;;;;5.60;1.90;;;;;;;15.03;96.85;99382.50;106288;1250;61378;-69
2023/08/02 01:59:40;;;;;;;5.00;1.90;;;;;;;15.03;96.90;99385.49;106185;1251;61146;-69
2023/08/02 02:02:06;;;;;;;6.20;2.00;;;;;;;15.03;96.85;99382.82;106292;1252;74643;-69
2023/08/02 02:04:33;;;;;;;4.10;1.80;;;;;;;15.03;96.82;99385.58;106285;1250;61733;-69
2023/08/02 02:06:59;;;;;;;5.80;1.80;;;;;;;15.05;96.62;99384.58;106347;1250;71505;-69
2023/08/02 02:09:26;;;;;;;6.40;1.60;;;;;;;15.07;96.45;99379.46;106213;1250;61171;-68
2023/08/02 02:11:53;;;;;;;4.40;1.80;;;;;;;15.08;96.22;99375.98;106259;1253;61147;-68
2023/08/02 02:14:19;;;;;;;7.10;2.10;;;;;;;15.08;96.27;99369.70;106197;1253;74689;-68
2023/08/02 02:16:46;;;;;;;4.80;1.90;;;;;;;15.09;96.30;99367.21;106240;1253;70015;-68
2023/08/02 02:19:13;;;;;;;6.90;2.20;;;;;;;15.11;96.16;99366.15;106326;1250;72834;-69
2023/08/02 02:21:39;;;;;;;7.50;1.90;;;;;;;15.12;96.09;99365.95;106320;1251;61286;-69
2023/08/02 02:24:06;;;;;;;5.10;1.80;;;;;;;15.14;96.06;99363.27;106310;1258;61226;-67
2023/08/02 02:26:33;;;;;;;6.70;2.20;;;;;;;15.15;95.96;99364.55;106274;1249;73117;-69
2023/08/02 02:28:59;;;;;;;5.70;2.20;;;;;;;15.17;95.83;99368.89;106258;1250;61332;-71
2023/08/02 02:31:26;;;;;;;5.60;2.20;;;;;;;15.19;95.71;99372.52;106337;1251;71652;-68
2023/08/02 02:33:52;;;;;;;5.70;1.90;;;;;;;15.21;95.46;99381.89;106209;1250;61455;-68
2023/08/02 02:36:19;;;;;;;5.10;1.80;;;;;;;15.22;95.51;99376.11;106234;1253;61192;-69
2023/08/02 02:38:45;;;;;;;5.90;2.00;;;;;;;15.24;95.30;99373.79;106224;1250;61369;-68
2023/08/02 02:41:12;;;;;;;4.90;1.80;;;;;;;15.26;94.96;99367.20;106422;1250;69441;-69
2023/08/02 02:43:39;;;;;;;4.60;1.70;;;;;;;15.29;94.84;99369.45;106152;1255;71486;-68
2023/08/02 02:46:05;;;;;;;7.80;2.00;;;;;;;15.32;94.97;99371.10;106198;1250;62013;-68
2023/08/02 02:48:32;;;;;;;4.60;2.00;;;;;;;15.33;94.74;99368.73;106226;1250;61289;-69
2023/08/02 02:50:59;;;;;;;5.70;1.80;;;;;;;15.34;94.81;99370.83;106144;1254;73258;-70
2023/08/02 02:53:25;;;;;;;6.50;1.90;;;;;;;15.35;94.75;99373.94;106404;1250;61381;-69
2023/08/02 02:55:52;;;;;;;8.70;2.30;;;;;;;15.35;94.58;99374.69;106193;1250;61358;-68
2023/08/02 02:58:19;;;;;;;6.70;2.00;;;;;;;15.34;94.65;99377.29;106109;1254;61285;-68
2023/08/02 03:00:45;;;;;;;6.80;2.10;;;;;;;15.32;94.68;99381.41;106230;1250;61615;-68
2023/08/02 03:03:12;;;;;;;7.50;2.00;;;;;;;15.28;94.55;99382.48;106345;1253;74864;-70
2023/08/02 03:05:39;;;;;;;4.80;1.70;;;;;;;15.24;94.59;99382.94;106189;1251;70883;-69
2023/08/02 03:08:06;;;;;;;7.00;2.10;;;;;;;15.20;94.68;99375.84;106135;1253;71523;-68
2023/08/02 03:10:32;;;;;;;5.30;1.80;;;;;;;15.14;94.76;99373.81;106266;1250;61839;-68
2023/08/02 03:12:59;;;;;;;6.30;1.90;;;;;;;15.07;94.82;99371.70;106204;1250;61349;-68
2023/08/02 03:15:26;;;;;;;6.30;2.20;;;;;;;15.00;95.03;99373.52;106461;1250;73337;-68
2023/08/02 03:17:52;;;;;;;5.90;2.00;;;;;;;14.94;95.32;99373.20;106225;1254;71399;-69
2023/08/02 03:20:19;;;;;;;7.00;2.10;;;;;;;14.87;95.44;99363.88;106207;1252;72521;-70
2023/08/02 03:22:45;;;;;;;5.50;1.90;;;;;;;14.81;95.77;99366.05;106237;1250;61600;-68
2023/08/02 03:25:12;;;;;;;5.70;2.10;;;;;;;14.76;95.86;99360.60;106248;1250;61261;-69
2023/08/02 03:27:39;;;;;;;7.10;2.40;;;;;;;14.70;96.09;99359.62;107965;1249;59222;-67
2023/08/02 03:30:06;;;;;;;6.20;2.20;;;;;;;14.65;96.24;99359.73;109464;1250;71268;-68
2023/08/02 03:32:33;;;;;;;4.90;1.90;;;;;;;14.62;96.50;99359.23;107135;1251;72386;-67
2023/08/02 03:35:00;;;;;;;5.20;2.10;;;;;;;14.58;96.66;99358.89;106235;1250;61715;-68
2023/08/02 03:37:27;;;;;;;7.00;2.80;;;;;;;14.55;96.76;99362.02;106572;1252;61233;-67
2023/08/02 03:39:54;;;;;;;6.70;2.00;;;;;;;14.52;96.78;99373.18;106236;1250;74013;-67
2023/08/02 03:42:21;;;;;;;6.40;2.10;;;;;;;14.48;96.86;99371.59;106168;1250;71028;-67
2023/08/02 03:44:47;;;;;;;5.80;2.30;;;;;;;14.43;97.14;99370.70;106324;1250;72642;-67
2023/08/02 03:47:14;;;;;;;7.00;2.20;;;;;;;14.40;97.24;99375.48;106176;1250;61234;-68
2023/08/02 03:49:41;;;;;;;6.90;2.30;;;;;;;14.36;97.35;99367.23;106273;1250;61272;-68
2023/08/02 03:52:08;;;;;;;6.00;2.20;;;;;;;14.31;97.67;99363.95;106181;1250;73904;-68
2023/08/02 03:54:34;;;;;;;5.20;2.20;;;;;;;14.27;97.82;99358.59;106234;1255;68920;-68
2023/08/02 03:57:01;;;;;;;7.80;2.10;;;;;;;14.23;97.88;99359.84;106225;1251;71470;-70
2023/08/02 03:59:28;;;;;;;8.60;2.20;;;;;;;14.22;98.14;99352.98;106430;1250;61409;-70
2023/08/02 04:01:54;;;;;;;5.70;2.00;;;;;;;14.19;97.94;99351.95;106241;1250;61775;-70
2023/08/02 04:04:21;;;;;;;4.90;2.30;;;;;;;14.17;98.18;99345.09;106162;1255;73441;-69
2023/08/02 04:06:48;;;;;;;8.00;2.30;;;;;;;14.16;98.06;99345.53;106378;1250;71141;-68
2023/08/02 04:09:15;;;;;;;8.50;2.20;;;;;;;14.14;98.07;99338.13;106318;1255;72707;-70
2023/08/02 04:11:42;;;;;;;8.70;2.30;;;;;;;14.12;98.08;99333.07;106587;1250;62024;-68
2023/08/02 04:14:09;;;;;;;5.90;2.20;;;;;;;14.11;98.16;99326.55;106213;1250;61316;-68
2023/08/02 04:16:36;;;;;;;4.50;2.00;;;;;;;14.10;98.31;99322.53;106218;1250;75267;-69
2023/08/02 04:19:02;;;;;;;6.20;2.40;;;;;;;14.08;98.45;99321.74;106159;1254;69940;-69
2023/08/02 04:21:29;;;;;;;7.70;2.70;;;;;;;14.06;98.69;99326.38;106285;1250;70978;-70
2023/08/02 04:23:55;;;;;;;6.50;2.70;;;;;;;14.05;98.99;99327.21;106280;1257;61360;-68
2023/08/02 04:26:22;;;;;;;7.30;2.40;;;;;;;14.06;99.21;99320.67;106233;1250;61243;-67
2023/08/02 04:28:49;;;;;;;7.70;2.40;;;;;;;14.08;99.38;99315.17;106147;1253;74701;-67
2023/08/02 04:31:15;;;;;;;7.30;2.70;;;;;;;14.13;99.44;99318.63;106208;1250;71635;-68
2023/08/02 04:33:42;;;;;;;5.60;2.20;;;;;;;14.19;99.73;99329.39;106412;1250;71414;-68
2023/08/02 04:36:09;;;;;;;5.80;2.30;;;;;;;14.26;99.80;99326.89;106148;1250;62075;-67
2023/08/02 04:38:36;;;;;;;7.40;2.30;;;;;;;14.35;99.61;99324.63;106225;1254;61163;-67
2023/08/02 04:41:04;;;;;;;7.30;2.20;;;;;;;14.44;99.52;99324.63;106066;1250;74659;-68
2023/08/02 04:43:30;;;;;;;5.50;2.40;;;;;;;14.54;99.57;99324.66;106331;1250;70986;-69
2023/08/02 04:45:57;;;;;;;6.20;2.10;;;;;;;14.63;99.57;99312.44;106361;1254;71144;-67
2023/08/02 04:48:24;;;;;;;4.80;2.20;;;;;;;14.71;99.34;99309.02;106278;1250;62045;-68
2023/08/02 04:50:50;;;;;;;5.80;2.20;;;;;;;14.80;99.19;99303.17;106157;1255;61263;-68
2023/08/02 04:53:17;;;;;;;7.00;2.30;;;;;;;14.91;98.87;99308.14;106192;1253;73525;-68
2023/08/02 04:55:44;;;;;;;5.90;2.30;;;;;;;15.03;98.31;99305.33;106445;1249;69909;-69
2023/08/02 04:58:11;;;;;;;10.50;2.50;;;;;;;15.16;98.03;99294.88;106043;1253;72796;-68
2023/08/02 05:00:37;;;;;;;6.30;2.20;;;;;;;15.29;97.28;99291.97;106196;1254;61630;-68
2023/08/02 05:03:04;;;;;;;5.90;2.30;;;;;;;15.40;96.83;99293.92;106304;1250;61238;-68
2023/08/02 05:05:32;;;;;;;6.80;2.20;;;;;;;15.51;96.01;99293.84;106239;1254;72411;-68
2023/08/02 05:07:59;;;;;;;8.60;2.50;;;;;;;15.59;95.13;99287.35;106177;1250;69679;-69
2023/08/02 05:10:26;;;;;;;6.00;2.20;;;;;;;15.65;94.67;99289.91;106259;1254;73865;-67
2023/08/02 05:12:52;;;;;;;6.80;2.40;;;;;;;15.71;94.24;99285.89;106136;1249;64166;-68
2023/08/02 05:15:19;;;;;;;5.50;2.60;;;;;;;15.78;93.99;99281.96;106091;1255;61334;-68
2023/08/02 05:17:46;;;;;;;5.00;2.00;;;;;;;15.83;93.70;99283.22;106357;1250;73363;-69
2023/08/02 05:20:13;;;;;;;6.50;2.30;;;;;;;15.88;93.57;99283.17;106198;1250;71420;-70
2023/08/02 05:22:39;;;;;;;4.70;2.20;;;;;;;15.94;93.72;99278.19;106274;1250;71952;-68
2023/08/02 05:25:07;;;;;;;4.20;2.00;;;;;;;15.98;93.16;99282.27;106313;1250;61737;-69
2023/08/02 05:27:33;;;;;;;5.00;2.10;;;;;;;16.01;92.67;99284.35;106166;1254;61155;-70
2023/08/02 05:30:01;;;;;;;5.90;2.20;;;;;;;16.04;92.53;99281.12;106275;1250;73894;-70
2023/08/02 05:32:28;;;;;;;5.40;2.20;;;;;;;16.05;92.19;99281.98;106230;1250;70114;-69
2023/08/02 05:34:55;;;;;;;5.00;2.10;;;;;;;16.09;92.13;99284.23;106239;1254;71567;-68
2023/08/02 05:37:22;;;;;;;6.40;2.10;;;;;;;16.12;92.05;99280.22;106246;1250;61347;-67
2023/08/02 05:39:49;;;;;;;4.50;2.20;;;;;;;16.14;91.83;99282.80;106332;1250;61160;-68
2023/08/02 05:42:15;;;;;;;6.00;2.20;;;;;;;16.13;91.39;99291.14;106275;1254;73508;-69
2023/08/02 05:44:42;;;;;;;6.20;2.20;;;;;;;16.11;91.19;99277.36;106149;1250;69947;-67
2023/08/02 05:47:09;;;;;;;4.10;2.20;;;;;;;16.07;90.83;99277.80;106208;1254;71664;-69
2023/08/02 05:49:35;;;;;;;6.60;2.30;;;;;;;16.04;91.17;99278.55;106296;1250;61285;-70
2023/08/02 05:52:02;;;;;;;5.10;2.20;;;;;;;16.04;91.23;99285.34;106378;1255;61272;-70
2023/08/02 05:54:29;;;;;;;5.00;2.20;;;;;;;16.03;91.45;99286.02;106203;1253;73758;-68
2023/08/02 05:56:55;;;;;;;6.50;2.30;;;;;;;16.02;91.64;99277.77;106170;1255;71165;-69
2023/08/02 05:59:22;;;;;;;4.50;2.00;;;;;;;16.00;91.54;99277.42;106254;1250;71495;-69
2023/08/02 06:01:49;;;;;;;5.30;2.40;;;;;;;15.95;91.38;99267.23;106312;1254;61142;-71
2023/08/02 06:04:16;;;;;;;5.80;2.10;;;;;;;15.94;91.58;99269.20;106248;1250;61900;-68
2023/08/02 06:06:42;;;;;;;4.90;2.00;;;;;;;15.94;91.75;99262.30;106246;1250;74398;-68
2023/08/02 06:09:09;;;;;;;5.10;2.10;;;;;;;15.96;91.80;99255.48;106190;1250;71415;-68
2023/08/02 06:11:36;;;;;;;6.30;2.20;;;;;;;16.02;91.66;99243.44;106273;1250;70438;-68
2023/08/02 06:14:03;;;;;;;5.30;2.20;;;;;;;16.11;91.47;99236.71;106491;1254;61280;-67
2023/08/02 06:16:30;;;;;;;6.80;2.20;;;;;;;16.17;91.16;99237.27;106234;1250;61181;-67
2023/08/02 06:18:57;;;;;;;5.40;2.40;;;;;;;16.20;90.92;99236.34;106269;1250;73233;-68
2023/08/02 06:21:23;;;;;;;4.10;1.90;;;;;;;16.21;90.90;99240.58;106256;1250;71270;-68
2023/08/02 06:23:50;;;;;;;6.30;2.10;;;;;;;16.30;91.23;99243.42;106352;1255;71420;-70
2023/08/02 06:26:18;;;;;;;5.50;2.10;;;;;;;16.45;91.18;99238.48;106299;1250;61346;-68
2023/08/02 06:28:45;;;;;;;5.60;2.00;;;;;;;16.60;90.18;99230.09;106281;1254;61255;-68
2023/08/02 06:31:11;;;;;;;4.30;1.70;;;;;;;16.75;89.52;99221.68;106238;1250;74396;-69
2023/08/02 06:33:39;;;;;;;4.40;1.60;;;;;;;16.93;89.02;99216.86;106224;1257;70061;-68
2023/08/02 06:36:05;;;;;;;4.50;1.80;;;;;;;17.13;88.52;99210.84;106352;1250;71513;-69
2023/08/02 06:38:32;;;;;;;2.90;1.70;;;;;;;17.34;87.41;99200.52;106281;1250;61363;-69
2023/08/02 06:40:59;;;;;;;2.80;1.40;;;;;;;17.57;86.86;99193.34;106343;1250;61248;-69
2023/08/02 06:43:26;;;;;;;4.20;1.60;;;;;;;17.74;85.41;99199.08;106189;1250;74611;-68
2023/08/02 06:45:53;;;;;;;4.40;1.50;;;;;;;17.91;84.47;99204.63;106436;1250;71039;-70
2023/08/02 06:48:23;;;;;;;3.60;1.50;;;;;;;18.09;83.11;99203.86;106284;1250;73069;-68
2023/08/02 06:50:51;;;;;;;3.30;1.30;;;;;;;18.26;82.65;99203.09;106318;1250;61420;-68
2023/08/02 06:53:18;;;;;;;3.80;1.20;;;;;;;18.42;81.77;99201.64;106120;1255;61356;-68
2023/08/02 06:55:45;;;;;;;4.50;1.60;;;;;;;18.58;81.65;99190.41;106290;1255;73439;-68
2023/08/02 06:58:12;;;;;;;4.70;1.50;;;;;;;18.80;81.27;99196.43;106329;1254;71160;-68
2023/08/02 07:00:42;;;;;;;3.10;1.30;;;;;;;19.05;80.65;99192.20;106256;1255;71626;-69
2023/08/02 07:03:09;;;;;;;3.30;1.80;;;;;;;19.25;79.31;99190.38;106064;1257;61227;-68
2023/08/02 07:05:37;;;;;;;4.00;1.40;;;;;;;19.41;78.53;99188.86;106214;1253;61761;-69
2023/08/02 07:08:04;;;;;;;3.70;1.40;;;;;;;19.52;77.65;99196.54;106530;1255;74284;-67
2023/08/02 07:10:32;;;;;;;3.20;1.30;;;;;;;19.56;76.90;99194.00;106164;1255;70860;-68
2023/08/02 07:12:58;;;;;;;3.10;1.20;;;;;;;19.66;77.75;99193.09;106246;1250;72740;-67
2023/08/02 07:15:25;;;;;;;3.60;1.30;;;;;;;19.75;76.82;99182.98;106142;1254;62555;-71
2023/08/02 07:17:52;;;;;;;4.90;1.20;;;;;;;19.73;74.61;99170.55;106281;1254;61152;-70
2023/08/02 07:20:21;;;;;;;2.40;1.00;;;;;;;19.76;75.14;99156.71;106113;1250;74444;-68
2023/08/02 07:22:48;;;;;;;3.30;1.00;;;;;;;19.85;74.35;99147.43;106271;1250;70522;-66
2023/08/02 07:25:15;;;;;;;4.00;1.30;;;;;;;19.90;73.39;99142.20;106250;1250;72311;-67
2023/08/02 07:27:42;;;;;;;2.50;1.00;;;;;;;20.00;73.71;99133.66;106176;1250;62076;-69
2023/08/02 07:30:09;;;;;;;4.50;1.30;;;;;;;20.09;73.63;99132.11;106337;1250;61862;-68
2023/08/02 07:32:36;;;;;;;3.70;1.30;;;;;;;20.20;73.08;99126.09;106279;1250;74695;-68
2023/08/02 07:35:03;;;;;;;5.90;1.30;;;;;;;20.25;73.03;99119.49;106310;1254;68894;-68
2023/08/02 07:37:30;;;;;;;4.20;1.30;;;;;;;20.29;72.59;99132.39;106116;1252;71428;-68
2023/08/02 07:39:56;;;;;;;3.90;1.30;;;;;;;20.27;72.00;99136.00;106438;1250;61324;-69
2023/08/02 07:42:23;;;;;;;3.00;1.10;;;;;;;20.23;71.50;99137.98;106310;1249;61952;-68
2023/08/02 07:45:02;;;;;;;6.10;2.40;;;;;;;20.09;71.41;99139.01;106115;1250;61386;-67
2023/08/02 07:47:28;;;;;;;4.10;1.10;;;;;;;20.09;72.20;99126.84;106289;1250;71163;-67
2023/08/02 07:49:55;;;;;;;3.70;1.10;;;;;;;20.10;72.35;99130.28;106430;1250;71502;-67
2023/08/02 07:52:22;;;;;;;2.60;1.10;;;;;;;20.13;71.85;99124.55;106201;1250;61728;-66
2023/08/02 07:54:51;;;;;;;3.80;1.20;;;;;;;20.21;71.36;99126.19;105950;1255;389200;-67
2023/08/02 07:57:30;;;;;;;2.90;1.20;;;;;;;20.36;71.72;99117.06;106265;1250;72788;-67
2023/08/02 07:59:58;;;;;;;3.10;1.00;;;;;;;20.37;70.71;99113.88;106435;1250;69798;-67
2023/08/02 08:02:25;;;;;;;2.90;1.10;;;;;;;20.37;71.29;99110.00;106437;1250;72755;-67
2023/08/02 08:04:52;;;;;;;2.40;1.00;;;;;;;20.32;71.09;99107.77;106311;1254;61339;-70
2023/08/02 08:07:21;;;;;;;3.00;1.00;;;;;;;20.31;70.63;99103.84;106314;1250;61812;-68
2023/08/02 08:09:50;;;;;;;3.10;1.10;;;;;;;20.34;70.75;99088.64;106433;1250;73558;-68
2023/08/02 08:12:17;;;;;;;3.10;1.00;;;;;;;20.51;71.46;99083.84;106262;1255;69366;-69
2023/08/02 08:14:44;;;;;;;2.60;1.10;;;;;;;20.68;70.89;99081.11;106284;1255;73986;-69
2023/08/02 08:17:10;;;;;;;3.50;1.00;;;;;;;20.85;70.64;99089.21;106308;1250;62531;-67
2023/08/02 08:19:37;;;;;;;2.60;1.00;;;;;;;20.90;70.19;99084.38;106373;1251;61177;-68
2023/08/02 08:22:05;;;;;;;2.60;1.00;;;;;;;20.92;70.00;99082.95;106298;1250;74766;-68
2023/08/02 08:24:31;;;;;;;3.00;1.10;;;;;;;20.84;69.29;99081.36;106152;1250;71191;-68
2023/08/02 08:26:58;;;;;;;3.00;1.10;;;;;;;20.80;69.63;99075.63;106227;1250;71835;-68
2023/08/02 08:29:27;;;;;;;2.90;1.20;;;;;;;20.82;69.70;99069.16;106504;1252;61293;-67
2023/08/02 08:31:54;;;;;;;3.50;1.20;;;;;;;20.79;69.61;99064.20;106385;1250;61238;-67
2023/08/02 08:34:20;;;;;;;2.40;0.90;;;;;;;20.76;69.94;99061.97;106244;1250;74721;-67
2023/08/02 08:36:47;;;;;;;2.40;1.10;;;;;;;20.76;70.12;99063.85;106180;1250;70434;-67
2023/08/02 08:39:14;;;;;;;2.50;1.20;;;;;;;20.89;70.51;99063.80;106226;1252;71462;-68
2023/08/02 08:41:40;;;;;;;3.00;1.10;;;;;;;21.09;70.04;99063.29;106335;1255;61263;-69
2023/08/02 08:44:07;;;;;;;4.70;1.40;;;;;;;21.22;68.21;99055.08;106479;1251;61158;-68
2023/08/02 08:46:34;;;;;;;2.90;1.00;;;;;;;21.31;67.48;99046.45;106021;1251;73527;-67
2023/08/02 08:49:02;;;;;;;2.70;1.20;;;;;;;21.40;67.56;99037.24;107856;1252;71299;-69
2023/08/02 08:51:41;;;;;;;2.40;1.10;;;;;;;21.59;68.12;99031.45;106342;1256;71447;-68
2023/08/02 08:54:17;;;;;;;3.10;1.30;;;;;;;21.78;67.27;99025.70;106183;1251;61905;-66
2023/08/02 08:56:44;;;;;;;4.00;1.20;;;;;;;21.91;66.96;99029.42;106091;1254;61670;-66
2023/08/02 08:59:11;;;;;;;3.40;1.10;;;;;;;21.98;66.95;99022.89;106085;1251;74360;-67
2023/08/02 09:01:39;;;;;;;3.10;1.40;;;;;;;22.00;66.75;99018.33;106312;1252;71189;-66
2023/08/02 09:04:07;;;;;;;3.30;1.10;;;;;;;21.93;66.89;99011.73;106220;1253;72418;-67
2023/08/02 09:06:34;;;;;;;3.20;1.00;;;;;;;21.84;66.51;98998.91;106233;1253;61271;-66
2023/08/02 09:09:02;;;;;;;4.40;1.40;;;;;;;21.71;67.04;99000.27;106078;1256;61120;-67
2023/08/02 09:11:29;;;;;;;3.00;1.10;;;;;;;21.57;67.53;98992.23;106249;1253;73496;-67
2023/08/02 09:14:13;;;;;;;3.60;1.40;;;;;;;21.45;67.92;98990.23;106273;1253;71133;-68
2023/08/02 09:16:55;;;;;;;2.70;1.10;;;;;;;21.34;68.68;98983.81;106217;1256;72368;-67
2023/08/02 09:19:24;;;;;;;2.80;1.20;;;;;;;21.32;69.02;98977.08;106339;1250;61287;-66
2023/08/02 09:22:12;;;;;;;3.30;1.30;;;;;;;21.34;68.73;98970.30;106376;1253;61347;-68
2023/08/02 09:24:41;;;;;;;3.30;1.20;;;;;;;21.42;68.10;98969.55;106381;1251;74333;-69
2023/08/02 09:27:15;;;;;;;2.70;1.00;;;;;;;21.47;67.82;98952.70;106287;1255;70120;-67
2023/08/02 09:29:51;;;;;;;3.30;1.30;;;;;;;21.56;67.14;98944.87;106257;1255;71892;-66
2023/08/02 09:32:19;;;;;;;3.90;1.60;;;;;;;21.64;67.09;98940.55;106315;1250;62016;-69
2023/08/02 09:34:56;;;;;;;4.40;1.90;;;;;;;21.80;67.57;98937.03;106172;1250;61366;-67
2023/08/02 09:37:35;;;;;;;4.20;1.60;;;;;;;22.00;67.42;98930.96;106217;1253;73569;-67
2023/08/02 09:40:09;;;;;;;4.30;1.40;;;;;;;22.15;65.70;98931.00;106287;1255;69741;-68
2023/08/02 09:42:36;;;;;;;2.90;1.40;;;;;;;22.19;65.12;98934.92;106139;1250;71143;-68
2023/08/02 09:45:03;;;;;;;3.60;1.60;;;;;;;22.12;64.56;98934.45;106116;1251;61452;-68
2023/08/02 09:47:30;;;;;;;3.00;1.50;;;;;;;22.02;64.96;98928.89;106191;1253;61251;-72
2023/08/02 09:50:07;;;;;;;3.10;1.50;;;;;;;21.89;65.96;98923.67;106272;1250;61785;-68
2023/08/02 09:52:36;;;;;;;3.70;1.80;;;;;;;21.75;66.16;98923.18;106300;1250;70511;-68
2023/08/02 09:55:02;;;;;;;3.90;1.60;;;;;;;21.62;67.47;98919.77;106132;1256;71233;-68
2023/08/02 09:57:31;;;;;;;3.90;1.70;;;;;;;21.54;67.98;98921.38;106096;1255;61357;-67
2023/08/02 10:00:04;;;;;;;3.70;1.60;;;;;;;21.48;69.01;98918.05;106513;1251;61280;-69
2023/08/02 10:02:31;;;;;;;4.00;1.90;;;;;;;21.48;70.85;98909.73;106294;1251;73809;-68
2023/08/02 10:04:59;;;;;;;3.20;1.60;;;;;;;21.54;71.95;98906.58;106144;1251;71199;-68
2023/08/02 10:07:42;;;;;;;4.30;2.00;;;;;;;21.60;71.85;98901.05;106257;1250;72681;-67
2023/08/02 10:10:29;;;;;;;4.50;1.70;;;;;;;21.65;71.79;98901.20;106100;1253;61752;-67
2023/08/02 10:13:01;;;;;;;3.60;1.80;;;;;;;21.63;72.01;98893.77;106226;1254;61270;-67
2023/08/02 10:15:29;;;;;;;3.80;1.70;;;;;;;21.59;71.99;98885.23;106429;1250;74640;-68
2023/08/02 10:17:56;;;;;;;4.40;1.70;;;;;;;21.59;72.74;98882.88;106197;1256;70168;-67
2023/08/02 10:20:24;;;;;;;4.00;1.90;;;;;;;21.64;73.18;98882.17;106326;1250;73192;-68
2023/08/02 10:22:52;;;;;;;3.10;1.70;;;;;;;21.66;73.31;98873.22;106231;1250;61235;-67
2023/08/02 10:25:19;;;;;;;4.90;2.00;;;;;;;21.63;73.98;98869.83;106465;1250;61214;-69
2023/08/02 10:27:46;;;;;;;4.20;1.90;;;;;;;21.51;74.53;98866.80;106215;1250;74632;-66
2023/08/02 10:30:13;;;;;;;4.30;2.40;;;;;;;21.26;74.41;98875.37;106245;1254;72163;-70
2023/08/02 10:32:40;;;;;;;4.30;2.00;;;;;;;20.95;74.82;98874.64;106276;1254;71040;-68
2023/08/02 10:35:07;;;;;;;4.40;2.00;;;;;;;20.66;76.12;98865.90;106221;1250;61900;-70
2023/08/02 10:37:54;;;;;;;4.60;1.90;;;;;;;20.45;77.58;98868.63;106439;1250;61138;-69
2023/08/02 10:40:22;;;;;;;5.00;2.30;;;;;;;20.26;79.24;98861.71;106319;1250;73845;-69
2023/08/02 10:43:04;;;;;;;4.00;2.30;;;;;;;20.06;80.07;98862.69;106318;1255;70533;-69
2023/08/02 10:45:31;;;;;;;4.30;2.00;;;;;;;19.88;81.36;98855.19;106236;1256;72788;-70
2023/08/02 10:48:23;;;;;;;3.80;2.10;;;;;;;19.76;82.28;98846.88;106101;1250;62745;-69
2023/08/02 10:50:50;;;;;;;4.50;2.30;;;;;;;19.63;83.42;98840.13;106323;1251;61261;-68
2023/08/02 10:53:18;;;;;;;3.20;2.20;;;;;;;19.59;84.12;98833.15;106170;1254;73484;-70
2023/08/02 10:56:10;;;;;;;4.80;2.30;;;;;;;19.60;84.98;98821.30;106285;1254;69679;-68
2023/08/02 10:58:54;;;;;;;3.50;2.00;;;;;;;19.64;85.31;98814.34;106195;1250;70969;-71
2023/08/02 11:01:21;;;;;;;4.60;2.30;;;;;;;19.66;85.88;98810.60;106142;1256;61136;-69
2023/08/02 11:03:48;;;;;;;5.00;2.40;;;;;;;19.70;86.04;98804.62;106174;1250;62205;-70
2023/08/02 11:06:27;;;;;;;4.00;2.30;;;;;;;19.77;86.55;98803.17;106325;1251;74687;-69
2023/08/02 11:08:54;;;;;;;4.80;2.30;;;;;;;19.82;86.74;98799.48;106225;1255;70071;-70
2023/08/02 11:11:29;;;;;;;6.30;2.40;;;;;;;19.88;87.02;98786.09;106179;1253;72604;-70
2023/08/02 11:13:56;;;;;;;3.40;2.20;;;;;;;19.90;86.72;98779.13;106352;1254;61339;-72
2023/08/02 11:16:23;;;;;;;4.40;2.10;;;;;;;19.89;86.92;98772.77;106202;1251;61256;-71
2023/08/02 11:18:50;;;;;;;5.10;2.30;;;;;;;19.86;87.22;98766.66;106157;1256;74591;-70
2023/08/02 11:21:17;;;;;;;4.50;2.40;;;;;;;19.79;87.11;98762.11;106257;1255;70110;-70
2023/08/02 11:23:49;;;;;;;3.80;2.10;;;;;;;19.74;87.52;98761.88;106305;1255;72810;-71
2023/08/02 11:26:19;;;;;;;4.40;2.30;;;;;;;19.69;88.18;98758.46;106164;1250;61401;-71
2023/08/02 11:28:48;;;;;;;5.60;2.50;;;;;;;19.66;88.65;98748.59;106186;1256;62406;-71